createdAt,value
2023-03-17T00:02:08.326Z,6.70
2023-03-17T00:04:36.709Z,6.70
2023-03-17T00:07:06.377Z,6.80
2023-03-17T00:09:34.571Z,6.80
2023-03-17T00:12:08.434Z,6.90
2023-03-17T00:14:36.524Z,6.80
2023-03-17T00:17:04.697Z,6.80
2023-03-17T00:19:36.365Z,6.70
2023-03-17T00:22:06.627Z,6.60
2023-03-17T00:24:34.849Z,6.60
2023-03-17T00:27:10.910Z,6.60
2023-03-17T00:29:39.995Z,6.60
2023-03-17T00:32:16.458Z,6.50
2023-03-17T00:34:45.688Z,6.40
2023-03-17T00:37:14.452Z,6.40
2023-03-17T00:39:43.098Z,6.30
2023-03-17T00:42:12.865Z,6.30
2023-03-17T00:44:41.562Z,6.20
2023-03-17T00:47:12.128Z,6.20
2023-03-17T00:49:40.285Z,6.30
2023-03-17T00:52:11.445Z,6.30
2023-03-17T00:54:40.039Z,6.40
2023-03-17T00:57:12.723Z,6.40
2023-03-17T00:59:43.209Z,6.40
2023-03-17T01:02:13.129Z,6.40
2023-03-17T01:04:49.902Z,6.40
2023-03-17T01:07:21.449Z,6.30
2023-03-17T01:09:49.872Z,6.30
2023-03-17T01:12:20.481Z,6.30
2023-03-17T01:14:50.488Z,6.20
2023-03-17T01:17:19.396Z,6.30
2023-03-17T01:19:48.695Z,6.20
2023-03-17T01:22:16.775Z,6.20
2023-03-17T01:24:44.847Z,6.20
2023-03-17T01:27:13.581Z,6.20
2023-03-17T01:29:43.455Z,6.20
2023-03-17T01:32:12.945Z,6.20
2023-03-17T01:34:41.105Z,6.20
2023-03-17T01:37:09.783Z,6.20
2023-03-17T01:39:37.977Z,6.20
2023-03-17T01:42:07.263Z,6.20
2023-03-17T01:44:35.423Z,6.20
2023-03-17T01:47:05.042Z,6.10
2023-03-17T01:49:35.658Z,6.30
2023-03-17T01:52:09.093Z,6.30
2023-03-17T01:54:40.841Z,6.40
2023-03-17T01:57:16.119Z,6.40
2023-03-17T01:59:47.710Z,6.40
2023-03-17T02:02:21.164Z,6.40
2023-03-17T02:04:50.464Z,6.40
2023-03-17T02:07:19.669Z,6.50
2023-03-17T02:09:47.975Z,6.50
2023-03-17T02:12:16.275Z,6.50
2023-03-17T02:14:44.685Z,6.50
2023-03-17T02:17:14.749Z,6.50
2023-03-17T02:19:45.220Z,6.50
2023-03-17T02:22:15.400Z,6.40
2023-03-17T02:24:50.624Z,6.40
2023-03-17T02:27:22.823Z,6.40
2023-03-17T02:29:52.102Z,6.30
2023-03-17T02:32:20.662Z,6.30
2023-03-17T02:34:49.842Z,6.30
2023-03-17T02:37:20.108Z,6.20
2023-03-17T02:39:48.505Z,6.10
2023-03-17T02:42:16.948Z,6.10
2023-03-17T02:44:45.071Z,6.20
2023-03-17T02:47:13.978Z,6.10
2023-03-17T02:49:43.982Z,6.10
2023-03-17T02:52:13.337Z,6.10
2023-03-17T02:54:42.906Z,6.00
2023-03-17T02:57:11.205Z,6.00
2023-03-17T02:59:39.476Z,6.00
2023-03-17T03:02:07.656Z,5.90
2023-03-17T03:04:35.910Z,5.90
2023-03-17T03:07:04.307Z,5.90
2023-03-17T03:09:32.480Z,5.80
2023-03-17T03:12:01.964Z,5.80
2023-03-17T03:14:30.197Z,5.70
2023-03-17T03:16:58.479Z,5.60
2023-03-17T03:19:26.576Z,5.60
2023-03-17T03:21:54.662Z,5.60
2023-03-17T03:24:23.015Z,5.60
2023-03-17T03:26:51.173Z,5.60
2023-03-17T03:29:20.741Z,5.70
2023-03-17T03:31:49.182Z,5.70
2023-03-17T03:34:17.556Z,5.60
2023-03-17T03:36:46.006Z,5.60
2023-03-17T03:39:14.603Z,5.60
2023-03-17T03:41:42.811Z,5.50
2023-03-17T03:44:10.989Z,5.50
2023-03-17T03:46:40.657Z,5.40
2023-03-17T03:49:08.807Z,5.30
2023-03-17T03:51:36.962Z,5.20
2023-03-17T03:54:05.256Z,5.20
2023-03-17T03:56:33.472Z,5.20
2023-03-17T03:59:02.386Z,5.20
2023-03-17T04:01:30.503Z,5.00
2023-03-17T04:04:00.218Z,5.10
2023-03-17T04:06:28.494Z,5.20
2023-03-17T04:08:58.302Z,5.20
2023-03-17T04:11:27.283Z,5.30
2023-03-17T04:13:55.706Z,5.30
2023-03-17T04:16:23.844Z,5.20
2023-03-17T04:18:52.473Z,5.20
2023-03-17T04:21:22.204Z,5.20
2023-03-17T04:23:50.270Z,5.20
2023-03-17T04:26:19.055Z,5.20
2023-03-17T04:28:47.681Z,5.00
2023-03-17T04:31:15.906Z,5.00
2023-03-17T04:33:44.037Z,4.90
2023-03-17T04:36:19.369Z,5.00
2023-03-17T04:38:49.087Z,5.00
2023-03-17T04:41:17.304Z,5.00
2023-03-17T04:43:45.562Z,5.00
2023-03-17T04:46:13.802Z,5.00
2023-03-17T04:48:41.999Z,4.90
2023-03-17T04:51:11.760Z,4.90
2023-03-17T04:53:40.034Z,4.90
2023-03-17T04:56:10.676Z,4.90
2023-03-17T04:58:38.802Z,4.90
2023-03-17T05:01:07.521Z,4.80
2023-03-17T05:03:36.017Z,4.80
2023-03-17T05:06:06.102Z,4.70
2023-03-17T05:08:34.195Z,4.70
2023-03-17T05:11:02.511Z,4.70
2023-03-17T05:17:44.643Z,4.60
2023-03-17T05:20:52.936Z,4.60
2023-03-17T05:23:22.436Z,4.60
2023-03-17T05:25:51.003Z,4.60
2023-03-17T05:28:20.823Z,4.60
2023-03-17T05:30:50.232Z,4.60
2023-03-17T05:33:20.602Z,4.60
2023-03-17T05:35:49.268Z,4.60
2023-03-17T05:38:17.650Z,4.60
2023-03-17T05:40:45.988Z,4.60
2023-03-17T05:43:14.115Z,4.60
2023-03-17T05:45:42.579Z,4.60
2023-03-17T05:48:12.335Z,4.50
2023-03-17T05:50:42.748Z,4.50
2023-03-17T05:53:11.098Z,4.40
2023-03-17T05:55:39.330Z,4.30
2023-03-17T05:58:08.023Z,4.30
2023-03-17T06:00:36.677Z,4.30
2023-03-17T06:03:05.625Z,4.20
2023-03-17T06:05:33.914Z,4.20
2023-03-17T06:08:05.174Z,4.20
2023-03-17T06:10:33.782Z,4.10
2023-03-17T06:13:03.979Z,4.10
2023-03-17T06:15:34.122Z,4.10
2023-03-17T06:18:02.551Z,4.20
2023-03-17T06:20:31.250Z,4.20
2023-03-17T06:23:04.446Z,4.20
2023-03-17T06:25:35.116Z,4.30
2023-03-17T06:28:04.115Z,4.40
2023-03-17T06:30:33.890Z,4.40
2023-03-17T06:33:02.389Z,4.50
2023-03-17T06:35:31.655Z,4.60
2023-03-17T06:38:00.886Z,4.60
2023-03-17T06:40:29.235Z,4.60
2023-03-17T06:42:59.070Z,4.60
2023-03-17T06:45:27.378Z,4.70
2023-03-17T06:47:55.529Z,4.80
2023-03-17T06:50:23.735Z,4.80
2023-03-17T06:52:52.029Z,4.90
2023-03-17T06:55:21.388Z,4.80
2023-03-17T06:57:51.208Z,4.90
2023-03-17T07:00:22.559Z,5.00
2023-03-17T07:02:51.172Z,5.00
2023-03-17T07:05:19.353Z,5.00
2023-03-17T07:07:47.774Z,5.10
2023-03-17T07:10:17.394Z,5.10
2023-03-17T07:12:46.057Z,5.10
2023-03-17T07:15:14.412Z,5.00
2023-03-17T07:17:44.152Z,5.00
2023-03-17T07:20:13.915Z,5.10
2023-03-17T07:22:42.412Z,5.20
2023-03-17T07:25:11.224Z,5.30
2023-03-17T07:27:39.624Z,5.40
2023-03-17T07:30:09.144Z,5.50
2023-03-17T07:32:37.679Z,5.60
2023-03-17T07:35:08.241Z,5.70
2023-03-17T07:37:36.403Z,5.80
2023-03-17T07:40:06.325Z,5.80
2023-03-17T07:42:34.427Z,5.80
2023-03-17T07:45:02.620Z,5.70
2023-03-17T07:47:30.747Z,5.70
2023-03-17T07:49:58.843Z,5.70
2023-03-17T07:52:28.411Z,5.80
2023-03-17T07:54:58.228Z,5.90
2023-03-17T07:57:27.141Z,6.00
2023-03-17T07:59:55.949Z,6.30
2023-03-17T08:02:24.321Z,6.30
2023-03-17T08:04:53.962Z,6.40
2023-03-17T08:07:22.134Z,6.60
2023-03-17T08:09:52.643Z,6.70
2023-03-17T08:12:21.399Z,6.90
2023-03-17T08:14:50.309Z,7.00
2023-03-17T08:17:18.746Z,7.10
2023-03-17T08:19:47.107Z,7.30
2023-03-17T08:22:15.222Z,7.40
2023-03-17T08:24:43.389Z,7.50
2023-03-17T08:27:13.469Z,7.70
2023-03-17T08:29:41.749Z,7.90
2023-03-17T08:32:10.617Z,8.10
2023-03-17T08:34:39.303Z,8.30
2023-03-17T08:37:11.272Z,8.40
2023-03-17T08:39:40.432Z,8.60
2023-03-17T08:42:08.630Z,8.80
2023-03-17T08:44:38.121Z,9.00
2023-03-17T08:47:06.668Z,9.10
2023-03-17T08:49:36.618Z,9.20
2023-03-17T08:52:05.656Z,9.30
2023-03-17T08:54:35.102Z,9.50
2023-03-17T08:57:04.052Z,9.50
2023-03-17T08:59:32.917Z,9.60
2023-03-17T09:02:02.539Z,9.70
2023-03-17T09:04:31.044Z,9.80
2023-03-17T09:07:03.854Z,9.90
2023-03-17T09:09:33.541Z,10.00
2023-03-17T09:12:02.336Z,10.10
2023-03-17T09:14:40.115Z,10.10
2023-03-17T09:17:14.431Z,10.10
2023-03-17T09:19:43.477Z,10.20
2023-03-17T09:22:14.022Z,10.40
2023-03-17T09:24:42.176Z,10.50
2023-03-17T09:27:10.538Z,10.60
2023-03-17T09:29:38.913Z,10.70
2023-03-17T09:32:08.742Z,10.80
2023-03-17T09:34:38.793Z,10.80
2023-03-17T09:37:07.050Z,10.70
2023-03-17T09:39:36.477Z,10.80
2023-03-17T09:42:13.418Z,10.90
2023-03-17T09:44:55.652Z,11.00
2023-03-17T09:47:51.316Z,11.20
2023-03-17T09:50:26.625Z,11.20
2023-03-17T09:52:58.458Z,11.10
2023-03-17T09:55:30.043Z,11.20
2023-03-17T09:58:00.797Z,11.30
2023-03-17T10:00:31.283Z,11.30
2023-03-17T10:03:01.555Z,11.40
2023-03-17T10:05:32.919Z,11.50
2023-03-17T10:08:23.064Z,11.40
2023-03-17T10:11:02.978Z,11.50
2023-03-17T10:13:44.043Z,11.60
2023-03-17T10:16:15.492Z,11.60
2023-03-17T10:18:47.832Z,11.70
2023-03-17T10:21:20.401Z,11.80
2023-03-17T10:23:48.584Z,11.90
2023-03-17T10:26:27.379Z,12.00
2023-03-17T10:28:55.922Z,12.00
2023-03-17T10:31:30.664Z,12.10
2023-03-17T10:34:05.358Z,12.10
2023-03-17T10:36:37.867Z,12.20
2023-03-17T10:39:08.106Z,12.30
2023-03-17T10:41:39.813Z,12.30
2023-03-17T10:44:11.208Z,12.30
2023-03-17T10:46:40.283Z,12.40
2023-03-17T10:49:10.810Z,12.50
2023-03-17T10:51:40.654Z,12.50
2023-03-17T10:54:11.047Z,12.60
2023-03-17T10:56:42.444Z,12.60
2023-03-17T10:59:18.995Z,12.70
2023-03-17T11:01:54.064Z,12.70
2023-03-17T11:04:31.794Z,12.70
2023-03-17T11:07:07.769Z,12.90
2023-03-17T11:09:37.960Z,13.00
2023-03-17T11:12:08.956Z,13.00
2023-03-17T11:14:37.443Z,13.10
2023-03-17T11:17:15.633Z,13.10
2023-03-17T11:19:55.670Z,13.10
2023-03-17T11:22:33.468Z,13.20
2023-03-17T11:25:11.410Z,13.20
2023-03-17T11:27:48.508Z,13.30
2023-03-17T11:30:18.655Z,13.40
2023-03-17T11:32:56.855Z,13.50
2023-03-17T11:35:51.448Z,13.60
2023-03-17T11:38:25.197Z,13.60
2023-03-17T11:41:21.168Z,13.70
2023-03-17T11:44:03.426Z,13.70
2023-03-17T11:46:37.744Z,13.70
2023-03-17T11:49:12.735Z,13.80
2023-03-17T11:51:50.713Z,13.70
2023-03-17T11:54:28.009Z,13.70
2023-03-17T11:56:59.840Z,13.70
2023-03-17T11:59:34.750Z,13.80
2023-03-17T12:02:11.145Z,13.90
2023-03-17T12:04:49.723Z,14.00
2023-03-17T12:07:21.840Z,14.10
2023-03-17T12:09:59.570Z,14.20
2023-03-17T12:12:32.888Z,14.30
2023-03-17T12:15:05.261Z,14.30
2023-03-17T12:17:37.816Z,14.40
2023-03-17T12:20:16.077Z,14.30
2023-03-17T12:22:48.161Z,14.40
2023-03-17T12:25:25.772Z,14.40
2023-03-17T12:28:02.136Z,14.60
2023-03-17T12:30:36.440Z,14.70
2023-03-17T12:33:16.936Z,14.70
2023-03-17T12:35:45.160Z,14.70
2023-03-17T12:38:18.579Z,14.90
2023-03-17T12:41:08.917Z,15.10
2023-03-17T12:43:41.701Z,15.10
2023-03-17T12:46:30.665Z,15.10
2023-03-17T12:49:27.586Z,15.20
2023-03-17T12:52:26.021Z,15.30
2023-03-17T12:54:54.757Z,15.40
2023-03-17T12:57:29.606Z,15.50
2023-03-17T13:00:01.937Z,15.50
2023-03-17T13:02:38.336Z,15.60
2023-03-17T13:05:10.033Z,15.70
2023-03-17T13:07:42.459Z,15.90
2023-03-17T13:10:39.888Z,15.90
2023-03-17T13:13:35.662Z,16.10
2023-03-17T13:16:05.979Z,16.20
2023-03-17T13:18:53.260Z,16.30
2023-03-17T13:21:26.463Z,16.50
2023-03-17T13:24:01.348Z,16.70
2023-03-17T13:26:54.929Z,16.90
2023-03-17T13:29:40.922Z,17.10
2023-03-17T13:32:34.939Z,17.10
2023-03-17T13:35:23.016Z,17.30
2023-03-17T13:38:17.399Z,17.40
2023-03-17T13:41:06.244Z,17.40
2023-03-17T13:43:49.926Z,17.50
2023-03-17T13:46:40.763Z,17.50
2023-03-17T13:49:22.368Z,17.50
2023-03-17T13:52:00.271Z,17.60
2023-03-17T13:54:34.093Z,17.60
2023-03-17T13:57:26.626Z,17.60
2023-03-17T14:00:02.039Z,17.70
2023-03-17T14:02:39.070Z,17.70
2023-03-17T14:05:10.429Z,17.80
2023-03-17T14:07:47.910Z,17.70
2023-03-17T14:10:19.653Z,17.60
2023-03-17T14:12:53.678Z,17.50
2023-03-17T14:15:28.126Z,17.60
2023-03-17T14:18:04.585Z,17.50
2023-03-17T14:20:32.978Z,17.50
2023-03-17T14:23:03.190Z,17.60
2023-03-17T14:25:34.554Z,17.60
2023-03-17T14:28:09.391Z,17.60
2023-03-17T14:30:39.129Z,17.60
2023-03-17T14:33:16.663Z,17.60
2023-03-17T14:35:45.027Z,17.60
2023-03-17T14:38:19.823Z,17.60
2023-03-17T14:40:48.928Z,17.60
2023-03-17T14:43:17.711Z,17.60
2023-03-17T14:45:51.816Z,17.60
2023-03-17T14:48:27.032Z,17.50
2023-03-17T14:50:57.114Z,17.60
2023-03-17T14:53:26.413Z,17.70
2023-03-17T14:55:54.781Z,17.60
2023-03-17T14:58:25.620Z,17.70
2023-03-17T15:00:58.983Z,17.70
2023-03-17T15:03:31.631Z,17.60
2023-03-17T15:06:23.033Z,17.60
2023-03-17T15:08:52.520Z,17.60
2023-03-17T15:11:24.544Z,17.60
2023-03-17T15:13:58.113Z,17.70
2023-03-17T15:16:30.115Z,17.60
2023-03-17T15:19:08.338Z,17.60
2023-03-17T15:21:40.861Z,17.50
2023-03-17T15:24:25.855Z,17.50
2023-03-17T15:27:01.674Z,17.50
2023-03-17T15:29:30.319Z,17.50
2023-03-17T15:32:10.834Z,17.50
2023-03-17T15:34:40.430Z,17.60
2023-03-17T15:37:19.669Z,17.60
2023-03-17T15:39:48.653Z,17.40
2023-03-17T15:42:21.513Z,17.50
2023-03-17T15:44:49.785Z,17.50
2023-03-17T15:47:20.277Z,17.50
2023-03-17T15:49:51.759Z,17.50
2023-03-17T15:52:24.880Z,17.50
2023-03-17T15:54:54.638Z,17.50
2023-03-17T15:57:23.545Z,17.50
2023-03-17T15:59:52.375Z,17.50
2023-03-17T16:02:28.573Z,17.60
2023-03-17T16:04:58.831Z,17.50
2023-03-17T16:07:27.078Z,17.50
2023-03-17T16:09:55.540Z,17.60
2023-03-17T16:12:23.784Z,17.60
2023-03-17T16:14:51.994Z,17.60
2023-03-17T16:17:26.918Z,17.60
2023-03-17T16:19:55.899Z,17.60
2023-03-17T16:22:41.708Z,17.50
2023-03-17T16:25:22.036Z,17.50
2023-03-17T16:27:50.621Z,17.50
2023-03-17T16:30:20.596Z,17.30
2023-03-17T16:32:49.481Z,17.30
2023-03-17T16:35:19.972Z,17.30
2023-03-17T16:37:52.357Z,17.30
2023-03-17T16:40:22.908Z,17.20
2023-03-17T16:42:51.584Z,17.20
2023-03-17T16:45:27.556Z,17.30
2023-03-17T16:47:56.574Z,17.30
2023-03-17T16:50:27.549Z,17.30
2023-03-17T16:52:57.784Z,17.30
2023-03-17T16:55:28.168Z,17.20
2023-03-17T16:58:00.693Z,17.20
2023-03-17T17:00:31.180Z,17.20
2023-03-17T17:02:59.906Z,17.10
2023-03-17T17:05:31.221Z,17.10
2023-03-17T17:08:00.944Z,17.10
2023-03-17T17:10:32.469Z,17.00
2023-03-17T17:13:01.008Z,17.00
2023-03-17T17:15:30.610Z,16.90
2023-03-17T17:18:01.679Z,16.90
2023-03-17T17:20:32.560Z,16.90
2023-03-17T17:23:03.348Z,16.90
2023-03-17T17:25:32.060Z,16.90
2023-03-17T17:28:01.087Z,17.00
2023-03-17T17:30:31.431Z,16.90
2023-03-17T17:33:01.121Z,16.90
2023-03-17T17:35:32.800Z,17.00
2023-03-17T17:38:03.111Z,17.00
2023-03-17T17:40:32.528Z,16.90
2023-03-17T17:43:00.889Z,16.90
2023-03-17T17:45:29.310Z,16.80
2023-03-17T17:47:57.483Z,16.80
2023-03-17T17:50:30.404Z,16.80
2023-03-17T17:53:04.939Z,16.80
2023-03-17T17:55:35.652Z,16.70
2023-03-17T17:58:03.820Z,16.60
2023-03-17T18:00:32.643Z,16.60
2023-03-17T18:03:01.005Z,16.60
2023-03-17T18:05:29.323Z,16.50
2023-03-17T18:07:58.150Z,16.50
2023-03-17T18:10:29.655Z,16.50
2023-03-17T18:12:59.370Z,16.50
2023-03-17T18:15:28.509Z,16.40
2023-03-17T18:17:57.246Z,16.40
2023-03-17T18:20:26.575Z,16.40
2023-03-17T18:22:55.099Z,16.30
2023-03-17T18:25:25.484Z,16.30
2023-03-17T18:27:53.833Z,16.30
2023-03-17T18:30:25.539Z,16.30
2023-03-17T18:32:55.609Z,16.30
2023-03-17T18:35:25.325Z,16.20
2023-03-17T18:37:53.680Z,16.10
2023-03-17T18:40:22.250Z,16.00
2023-03-17T18:42:50.328Z,16.00
2023-03-17T18:45:18.782Z,15.90
2023-03-17T18:47:48.281Z,15.90
2023-03-17T18:50:18.292Z,15.90
2023-03-17T18:52:46.984Z,15.80
2023-03-17T18:55:16.200Z,15.80
2023-03-17T18:57:45.081Z,15.70
2023-03-17T19:00:17.435Z,15.70
2023-03-17T19:02:46.247Z,15.70
2023-03-17T19:05:16.318Z,15.60
2023-03-17T19:07:44.675Z,15.50
2023-03-17T19:10:14.128Z,15.40
2023-03-17T19:12:42.645Z,15.30
2023-03-17T19:15:12.486Z,15.10
2023-03-17T19:17:40.812Z,15.10
2023-03-17T19:20:10.212Z,15.00
2023-03-17T19:22:40.372Z,14.80
2023-03-17T19:25:09.239Z,14.70
2023-03-17T19:27:37.543Z,14.70
2023-03-17T19:30:07.107Z,14.60
2023-03-17T19:32:35.265Z,14.60
2023-03-17T19:35:03.474Z,14.50
2023-03-17T19:37:32.364Z,14.40
2023-03-17T19:40:01.927Z,14.40
2023-03-17T19:42:30.087Z,14.30
2023-03-17T19:44:58.168Z,14.30
2023-03-17T19:47:27.489Z,14.20
2023-03-17T19:49:56.309Z,14.10
2023-03-17T19:52:24.678Z,14.10
2023-03-17T19:54:52.954Z,14.00
2023-03-17T19:57:22.766Z,13.90
2023-03-17T19:59:51.164Z,14.00
2023-03-17T20:02:20.515Z,14.00
2023-03-17T20:04:49.634Z,14.00
2023-03-17T20:07:17.833Z,13.70
2023-03-17T20:09:47.985Z,13.80
2023-03-17T20:12:16.182Z,13.90
2023-03-17T20:14:45.979Z,13.90
2023-03-17T20:17:15.370Z,13.90
2023-03-17T20:19:43.756Z,13.90
2023-03-17T20:22:12.116Z,13.80
2023-03-17T20:24:40.267Z,13.80
2023-03-17T20:27:10.612Z,13.70
2023-03-17T20:29:39.683Z,13.60
2023-03-17T20:32:09.229Z,13.50
2023-03-17T20:34:37.655Z,13.50
2023-03-17T20:37:06.067Z,13.40
2023-03-17T20:39:34.777Z,13.40
2023-03-17T20:42:04.318Z,13.40
2023-03-17T20:44:32.776Z,13.40
2023-03-17T20:47:00.869Z,13.40
2023-03-17T20:49:30.634Z,13.40
2023-03-17T20:51:58.759Z,13.40
2023-03-17T20:54:27.210Z,13.30
2023-03-17T20:56:56.728Z,13.20
2023-03-17T20:59:26.192Z,13.20
2023-03-17T21:01:54.479Z,13.10
2023-03-17T21:04:22.656Z,13.00
2023-03-17T21:06:52.466Z,12.90
2023-03-17T21:09:20.560Z,12.90
2023-03-17T21:11:49.778Z,12.90
2023-03-17T21:14:18.409Z,12.80
2023-03-17T21:16:47.277Z,12.80
2023-03-17T21:19:17.244Z,12.90
2023-03-17T21:21:45.708Z,12.90
2023-03-17T21:24:25.136Z,12.90
2023-03-17T21:26:53.272Z,12.90
2023-03-17T21:29:21.990Z,12.90
2023-03-17T21:31:50.594Z,13.00
2023-03-17T21:34:19.151Z,13.00
2023-03-17T21:36:47.494Z,13.10
2023-03-17T21:39:17.652Z,13.10
2023-03-17T21:41:47.130Z,13.20
2023-03-17T21:44:15.991Z,13.20
2023-03-17T21:46:44.613Z,13.30
2023-03-17T21:49:13.191Z,13.30
2023-03-17T21:51:41.298Z,13.30
2023-03-17T21:54:09.702Z,13.30
2023-03-17T21:56:39.683Z,13.30
2023-03-17T21:59:10.830Z,13.40
2023-03-17T22:01:39.759Z,13.40
2023-03-17T22:04:08.528Z,13.40
2023-03-17T22:06:36.630Z,13.40
2023-03-17T22:09:05.809Z,13.40
2023-03-17T22:11:33.919Z,13.50
2023-03-17T22:14:03.604Z,13.40
2023-03-17T22:16:31.816Z,13.40
2023-03-17T22:19:00.053Z,13.40
2023-03-17T22:21:28.953Z,13.40
2023-03-17T22:23:57.653Z,13.30
2023-03-17T22:26:25.789Z,13.20
2023-03-17T22:28:53.976Z,13.30
2023-03-17T22:31:25.027Z,13.10
2023-03-17T22:33:56.287Z,13.10
2023-03-17T22:36:25.286Z,13.10
2023-03-17T22:38:53.830Z,13.00
2023-03-17T22:41:24.439Z,12.90
2023-03-17T22:43:52.751Z,13.00
2023-03-17T22:46:22.165Z,12.90
2023-03-17T22:48:52.533Z,12.80
2023-03-17T22:51:23.645Z,12.90
2023-03-17T22:53:52.625Z,12.60
2023-03-17T22:56:21.873Z,12.60
2023-03-17T22:58:50.664Z,12.70
2023-03-17T23:01:20.305Z,12.60
2023-03-17T23:03:48.473Z,12.40
2023-03-17T23:06:18.142Z,12.30
2023-03-17T23:08:46.815Z,12.40
2023-03-17T23:11:18.304Z,12.10
2023-03-17T23:13:47.842Z,11.90
2023-03-17T23:16:16.389Z,12.10
2023-03-17T23:18:46.826Z,12.10
2023-03-17T23:21:24.155Z,12.10
2023-03-17T23:23:52.229Z,12.10
2023-03-17T23:26:20.323Z,12.10
2023-03-17T23:28:48.569Z,12.20
2023-03-17T23:31:19.319Z,12.30
2023-03-17T23:33:48.356Z,12.30
2023-03-17T23:36:19.280Z,12.40
2023-03-17T23:38:48.604Z,12.40
2023-03-17T23:41:17.725Z,12.50
2023-03-17T23:43:46.761Z,12.60
2023-03-17T23:46:15.338Z,12.60
2023-03-17T23:48:44.730Z,12.70
2023-03-17T23:51:14.376Z,12.70
2023-03-17T23:53:43.846Z,12.80
2023-03-17T23:56:13.078Z,12.90
2023-03-17T23:58:43.186Z,13.00
